Time;durP1;ratioP1;P1;durP2;ratioP2;P2;SDS_P1;SDS_P2;PMS_P1;PMS_P2;Temp;Humidity;BMP_temperature;BMP_pressure;BME280_temperature;BME280_humidity;BME280_pressure;Samples;Min_cycle;Max_cycle;Signal;HPM_P1;HPM_P2
2022/01/01 00:02:04;;;;;;;2.42;1.80;;;3.20;99.90;;;;;;5087431;28;20040;-76
2022/01/01 00:04:30;;;;;;;4.88;1.85;;;3.20;99.90;;;;;;5087470;28;20020;-76
2022/01/01 00:06:56;;;;;;;4.22;2.28;;;2.90;99.90;;;;;;5077365;28;20425;-78
2022/01/01 00:09:22;;;;;;;2.20;1.50;;;2.90;99.90;;;;;;5066840;28;20388;-77
2022/01/01 00:11:47;;;;;;;3.70;2.13;;;2.90;99.90;;;;;;5065952;28;20040;-75
2022/01/01 00:14:13;;;;;;;2.45;1.33;;;3.00;99.90;;;;;;5065272;28;20021;-78
2022/01/01 00:16:39;;;;;;;1.92;1.65;;;3.10;99.90;;;;;;5065119;28;20186;-77
2022/01/01 00:19:05;;;;;;;2.20;1.23;;;3.20;99.90;;;;;;5065209;28;20210;-77
2022/01/01 00:21:31;;;;;;;2.55;1.25;;;3.10;99.90;;;;;;5064914;28;20123;-77
2022/01/01 00:23:57;;;;;;;3.45;1.70;;;3.10;99.90;;;;;;5065507;28;20396;-77
2022/01/01 00:26:22;;;;;;;4.68;1.60;;;3.10;99.90;;;;;;5068518;28;20095;-77
2022/01/01 00:28:48;;;;;;;3.22;1.90;;;3.00;99.90;;;;;;5067702;28;20021;-77
2022/01/01 00:31:14;;;;;;;5.07;2.95;;;3.70;99.90;;;;;;5065567;28;20511;-77
2022/01/01 00:33:40;;;;;;;3.60;2.33;;;2.90;99.90;;;;;;5065470;28;20028;-78
2022/01/01 00:36:06;;;;;;;4.82;2.33;;;2.90;99.90;;;;;;5068316;28;20021;-78
2022/01/01 00:38:31;;;;;;;3.28;1.60;;;2.80;99.90;;;;;;5076126;28;20060;-76
2022/01/01 00:40:57;;;;;;;2.08;1.50;;;2.80;99.90;;;;;;5068909;28;20094;-77
2022/01/01 00:43:25;;;;;;;2.72;1.92;;;2.70;99.90;;;;;;5087495;28;20095;-77
2022/01/01 00:45:51;;;;;;;1.98;1.67;;;2.50;99.90;;;;;;5086664;28;20097;-77
2022/01/01 00:48:16;;;;;;;2.70;1.63;;;2.30;99.90;;;;;;5085518;28;20082;-77
2022/01/01 00:50:42;;;;;;;4.57;2.00;;;0.40;99.90;;;;;;5066236;28;20710;-75
2022/01/01 00:53:08;;;;;;;3.92;1.90;;;2.60;99.90;;;;;;5084561;28;20032;-79
2022/01/01 00:55:34;;;;;;;1.55;1.45;;;2.90;99.90;;;;;;5067001;28;20476;-77
2022/01/01 00:58:00;;;;;;;6.63;1.95;;;3.00;99.90;;;;;;5086034;28;20028;-77
2022/01/01 01:00:26;;;;;;;5.72;2.80;;;2.70;99.90;;;;;;5070869;28;20127;-78
2022/01/01 01:02:51;;;;;;;3.05;1.52;;;2.50;99.90;;;;;;5068900;28;20567;-77
2022/01/01 01:05:17;;;;;;;4.90;1.80;;;2.30;99.90;;;;;;5068357;28;20016;-77
2022/01/01 01:07:43;;;;;;;3.70;1.75;;;2.20;99.90;;;;;;5104091;28;20038;-77
2022/01/01 01:10:09;;;;;;;3.38;1.77;;;2.10;99.90;;;;;;5109793;28;20024;-77
2022/01/01 01:12:42;;;;;;;5.85;1.73;;;2.00;99.90;;;;;;5088465;28;20510;-77
2022/01/01 01:15:17;;;;;;;3.17;1.70;;;2.00;99.90;;;;;;5089918;28;20404;-77
2022/01/01 01:17:47;;;;;;;2.38;1.63;;;2.00;99.90;;;;;;5092820;28;20285;-76
2022/01/01 01:20:13;;;;;;;3.83;2.60;;;2.40;99.90;;;;;;5112904;28;20082;-76
2022/01/01 01:22:39;;;;;;;1.75;1.65;;;2.40;99.90;;;;;;5091850;28;20515;-76
2022/01/01 01:25:06;;;;;;;2.58;2.38;;;2.20;99.90;;;;;;5091793;28;20042;-77
2022/01/01 01:27:33;;;;;;;1.83;1.48;;;1.90;99.90;;;;;;5109506;28;20035;-76
2022/01/01 01:29:59;;;;;;;4.00;2.20;;;2.00;99.90;;;;;;5092201;28;20491;-76
2022/01/01 01:32:25;;;;;;;3.13;1.77;;;2.20;99.90;;;;;;5109935;28;20023;-76
2022/01/01 01:34:50;;;;;;;1.98;1.25;;;2.40;99.90;;;;;;5091297;28;20042;-78
2022/01/01 01:37:16;;;;;;;2.63;1.80;;;2.50;99.90;;;;;;5091723;28;20538;-76
2022/01/01 01:39:42;;;;;;;1.63;1.52;;;2.60;99.90;;;;;;5091455;28;20507;-76
2022/01/01 01:42:08;;;;;;;2.80;1.52;;;2.50;99.90;;;;;;5109312;28;20119;-76
2022/01/01 01:44:42;;;;;;;1.85;1.45;;;2.20;99.90;;;;;;5110072;28;20565;-76
2022/01/01 01:47:15;;;;;;;3.78;1.63;;;2.10;99.90;;;;;;5109737;28;20042;-77
2022/01/01 01:49:44;;;;;;;3.08;1.38;;;2.00;99.90;;;;;;5092001;28;20097;-76
2022/01/01 01:52:12;;;;;;;9.10;1.33;;;2.20;99.90;;;;;;5091042;28;20207;-76
2022/01/01 01:54:40;;;;;;;1.55;1.30;;;2.20;99.90;;;;;;5090977;28;20152;-76
2022/01/01 01:57:05;;;;;;;1.38;1.27;;;2.30;99.90;;;;;;5090988;28;20023;-76
2022/01/01 01:59:31;;;;;;;4.72;1.48;;;2.50;99.90;;;;;;5109954;28;20511;-77
2022/01/01 02:01:57;;;;;;;1.50;1.23;;;2.30;99.90;;;;;;5109629;28;20042;-75
2022/01/01 02:04:22;;;;;;;2.25;1.50;;;2.40;99.90;;;;;;5090685;28;20176;-76
2022/01/01 02:06:49;;;;;;;3.33;1.80;;;2.40;99.90;;;;;;5082127;28;20039;-76
2022/01/01 02:09:15;;;;;;;6.15;1.73;;;2.50;99.90;;;;;;5071011;28;20504;-76
2022/01/01 02:11:41;;;;;;;1.42;1.30;;;2.50;99.90;;;;;;5089543;28;20162;-77
2022/01/01 02:17:13;;;;;;;2.42;1.42;;;2.20;99.90;;;;;;5089430;28;20112;-76
2022/01/01 02:20:10;;;;;;;1.80;1.17;;;2.20;99.90;;;;;;5089013;28;20040;-78
2022/01/01 02:22:49;;;;;;;0.98;0.85;;;2.30;99.90;;;;;;5071627;28;20201;-76
2022/01/01 02:25:17;;;;;;;1.05;0.75;;;2.10;99.90;;;;;;5071223;28;20040;-79
2022/01/01 02:27:43;;;;;;;1.77;1.13;;;2.10;99.90;;;;;;5072201;28;20056;-76
2022/01/01 02:30:12;;;;;;;3.13;1.40;;;2.00;99.90;;;;;;5081081;28;20482;-77
2022/01/01 02:32:37;;;;;;;1.75;1.23;;;1.90;99.90;;;;;;5089817;28;20043;-84
2022/01/01 02:35:05;;;;;;;5.22;1.40;;;1.70;99.90;;;;;;5091296;28;20037;-76
2022/01/01 02:37:31;;;;;;;2.67;1.02;;;1.70;99.90;;;;;;5109901;28;20882;-85
2022/01/01 02:39:58;;;;;;;2.40;1.65;;;1.70;99.90;;;;;;5091908;28;20031;-80
2022/01/01 02:42:24;;;;;;;2.17;1.65;;;1.60;99.90;;;;;;5090909;28;20096;-79
2022/01/01 02:44:51;;;;;;;4.47;2.20;;;1.60;99.90;;;;;;5090698;28;20028;-84
2022/01/01 02:47:17;;;;;;;3.15;1.80;;;3.60;99.90;;;;;;5109096;28;20027;-80
2022/01/01 02:49:43;;;;;;;1.55;1.05;;;1.80;99.90;;;;;;5091111;28;20038;-79
2022/01/01 02:52:09;;;;;;;2.40;1.02;;;1.90;99.90;;;;;;5109471;28;20095;-78
2022/01/01 02:54:34;;;;;;;4.43;1.50;;;1.90;99.90;;;;;;5108893;28;20034;-76
2022/01/01 02:57:00;;;;;;;3.80;1.90;;;0.30;99.90;;;;;;5090660;28;20031;-78
2022/01/01 02:59:26;;;;;;;1.42;1.13;;;1.90;99.90;;;;;;5090157;28;20091;-79
2022/01/01 03:01:52;;;;;;;2.45;1.83;;;1.70;99.90;;;;;;5110163;28;20012;-79
2022/01/01 03:04:17;;;;;;;2.03;1.83;;;1.90;99.90;;;;;;5091756;28;20067;-78
2022/01/01 03:06:45;;;;;;;5.60;1.75;;;1.80;99.90;;;;;;5092300;28;20454;-78
2022/01/01 03:09:10;;;;;;;1.75;1.40;;;1.70;99.90;;;;;;5091907;28;20211;-76
2022/01/01 03:11:36;;;;;;;1.88;1.73;;;1.70;99.90;;;;;;5092275;28;20258;-81
2022/01/01 03:14:02;;;;;;;1.83;1.60;;;1.70;99.90;;;;;;5091991;28;20063;-79
2022/01/01 03:16:28;;;;;;;1.83;1.45;;;1.50;99.90;;;;;;5092526;28;20030;-82
2022/01/01 03:18:53;;;;;;;3.88;1.52;;;1.50;99.90;;;;;;5111338;28;20024;-76
2022/01/01 03:21:19;;;;;;;1.55;1.23;;;1.50;99.90;;;;;;5093241;28;20272;-80
2022/01/01 03:23:45;;;;;;;4.15;2.08;;;1.60;99.90;;;;;;5110806;28;20043;-77
2022/01/01 03:26:11;;;;;;;1.58;1.48;;;1.60;99.90;;;;;;5091848;28;20449;-77
2022/01/01 03:28:36;;;;;;;2.60;1.45;;;1.50;99.90;;;;;;5110195;28;20080;-78
2022/01/01 03:31:02;;;;;;;5.88;2.15;;;1.70;99.90;;;;;;5092290;28;20030;-77
2022/01/01 03:33:28;;;;;;;2.45;1.75;;;1.70;99.90;;;;;;5092725;28;20020;-76
2022/01/01 03:35:54;;;;;;;7.97;1.10;;;1.60;99.90;;;;;;5110774;28;20111;-78
2022/01/01 03:38:22;;;;;;;2.65;1.05;;;1.60;99.90;;;;;;5091413;28;20051;-83
2022/01/01 03:40:48;;;;;;;1.58;1.48;;;1.60;99.90;;;;;;5092695;28;20020;-79
2022/01/01 03:43:13;;;;;;;1.67;1.50;;;1.60;99.90;;;;;;5092688;28;20039;-82
2022/01/01 03:45:39;;;;;;;4.72;2.30;;;1.50;99.90;;;;;;5093011;28;20428;-84
2022/01/01 03:48:06;;;;;;;1.60;1.05;;;1.30;99.90;;;;;;5092484;28;20114;-76
2022/01/01 03:50:33;;;;;;;1.35;1.10;;;1.10;99.90;;;;;;5092669;28;20015;-80
2022/01/01 03:52:59;;;;;;;4.35;2.20;;;1.00;99.90;;;;;;5092489;28;20024;-77
2022/01/01 03:55:24;;;;;;;5.35;2.45;;;1.00;99.90;;;;;;5111976;28;20026;-76
2022/01/01 03:57:50;;;;;;;4.15;1.65;;;1.00;99.90;;;;;;5092675;28;20032;-86
2022/01/01 04:00:16;;;;;;;1.65;1.30;;;1.10;99.90;;;;;;5092619;28;20476;-79
2022/01/01 04:02:42;;;;;;;4.15;2.95;;;1.40;99.90;;;;;;5092538;28;20023;-79
2022/01/01 04:05:08;;;;;;;2.60;2.20;;;1.50;99.90;;;;;;5092604;28;20437;-75
2022/01/01 04:07:34;;;;;;;2.08;1.33;;;1.40;99.90;;;;;;5092026;28;20031;-78
2022/01/01 04:10:00;;;;;;;1.55;1.45;;;1.30;99.90;;;;;;5092762;28;20020;-86
2022/01/01 04:12:26;;;;;;;1.63;1.30;;;1.50;99.90;;;;;;5110610;28;20047;-78
2022/01/01 04:14:53;;;;;;;3.17;1.13;;;1.50;99.90;;;;;;5092287;28;20027;-77
2022/01/01 04:17:19;;;;;;;2.72;1.60;;;1.50;99.90;;;;;;5092261;28;20023;-76
2022/01/01 04:19:45;;;;;;;2.50;1.63;;;1.40;99.90;;;;;;5110387;28;20028;-77
2022/01/01 04:22:13;;;;;;;8.68;3.42;;;1.30;99.90;;;;;;5110778;28;20035;-77
2022/01/01 04:24:40;;;;;;;2.63;1.50;;;1.20;99.90;;;;;;5092232;28;20389;-81
2022/01/01 04:27:07;;;;;;;4.05;1.63;;;1.10;99.90;;;;;;5110371;28;20023;-77
2022/01/01 04:29:33;;;;;;;1.67;1.33;;;1.20;99.90;;;;;;5110198;28;20039;-81
2022/01/01 04:32:00;;;;;;;5.13;1.50;;;1.50;99.90;;;;;;5092212;28;20484;-76
2022/01/01 04:34:26;;;;;;;1.77;1.33;;;1.60;99.90;;;;;;5110211;28;20476;-82
2022/01/01 04:37:01;;;;;;;2.83;1.33;;;1.60;99.90;;;;;;5110329;28;20023;-81
2022/01/01 04:39:27;;;;;;;3.20;1.83;;;1.60;99.90;;;;;;5116755;28;20043;-77
2022/01/01 04:41:53;;;;;;;1.65;1.25;;;3.50;99.90;;;;;;5093167;28;20076;-81
2022/01/01 04:44:19;;;;;;;5.70;2.10;;;1.30;99.90;;;;;;5091954;28;20114;-83
2022/01/01 04:46:44;;;;;;;5.40;2.22;;;1.10;99.90;;;;;;5092061;28;20353;-76
2022/01/01 04:49:10;;;;;;;8.10;1.88;;;0.90;99.90;;;;;;5091791;28;20027;-77
2022/01/01 04:51:36;;;;;;;7.05;2.10;;;0.80;99.90;;;;;;5096011;28;20051;-81
2022/01/01 04:54:02;;;;;;;4.13;2.08;;;0.60;99.90;;;;;;5113986;28;20034;-79
2022/01/01 04:56:32;;;;;;;2.90;1.80;;;0.50;99.90;;;;;;5096051;28;20053;-86
2022/01/01 04:58:58;;;;;;;4.13;2.08;;;0.50;99.90;;;;;;5095771;28;20019;-85
2022/01/01 05:01:24;;;;;;;3.72;1.63;;;0.40;99.90;;;;;;5095493;28;20031;-82
2022/01/01 05:03:49;;;;;;;2.83;1.30;;;0.30;99.90;;;;;;5095803;28;20062;-76
2022/01/01 05:06:15;;;;;;;2.35;1.30;;;0.20;99.90;;;;;;5114326;28;20077;-77
2022/01/01 05:08:41;;;;;;;2.63;1.75;;;0.10;99.90;;;;;;5095594;28;20030;-77
2022/01/01 05:11:06;;;;;;;4.80;2.30;;;0.10;99.90;;;;;;5095901;28;20260;-79
2022/01/01 05:13:32;;;;;;;2.13;1.55;;;0.20;99.90;;;;;;5095535;28;20080;-79
2022/01/01 05:15:58;;;;;;;1.25;1.17;;;0.20;99.90;;;;;;5095603;28;20024;-77
2022/01/01 05:18:24;;;;;;;1.95;1.27;;;0.10;99.90;;;;;;5095475;28;20023;-80
2022/01/01 05:20:50;;;;;;;5.10;1.98;;;0.10;99.90;;;;;;5095690;28;20103;-76
2022/01/01 05:23:16;;;;;;;2.10;1.10;;;0.30;99.90;;;;;;5095141;28;20117;-78
2022/01/01 05:25:42;;;;;;;1.33;1.10;;;0.30;99.90;;;;;;5095252;28;20019;-78
2022/01/01 05:28:08;;;;;;;3.28;2.45;;;0.30;99.90;;;;;;5094907;28;20471;-82
2022/01/01 05:30:34;;;;;;;1.52;1.40;;;0.20;99.90;;;;;;5094799;28;20028;-79
2022/01/01 05:33:00;;;;;;;1.40;1.23;;;0.20;99.90;;;;;;5095373;28;20031;-79
2022/01/01 05:35:26;;;;;;;2.70;1.20;;;0.10;99.90;;;;;;5095095;28;20049;-82
2022/01/01 05:37:52;;;;;;;2.40;1.20;;;0.10;99.90;;;;;;5095044;28;20072;-78
2022/01/01 05:40:18;;;;;;;2.17;1.50;;;0.00;99.90;;;;;;5095239;28;20024;-83
2022/01/01 05:42:43;;;;;;;1.25;1.15;;;-0.10;99.90;;;;;;5094989;28;20048;-80
2022/01/01 05:45:10;;;;;;;2.88;1.85;;;-0.10;99.90;;;;;;5113204;28;20051;-77
2022/01/01 05:47:36;;;;;;;1.25;1.10;;;-0.20;99.90;;;;;;5094888;28;20508;-76
2022/01/01 05:50:03;;;;;;;2.60;1.48;;;-0.30;99.90;;;;;;5094828;28;20023;-75
2022/01/01 05:52:28;;;;;;;2.08;1.38;;;-0.10;99.90;;;;;;5094853;28;20028;-81
2022/01/01 05:54:54;;;;;;;1.35;1.10;;;1.10;99.90;;;;;;5095012;28;20034;-76
2022/01/01 05:57:19;;;;;;;3.33;1.27;;;0.50;99.90;;;;;;5113205;28;20035;-86
2022/01/01 05:59:45;;;;;;;3.55;1.42;;;0.60;99.90;;;;;;5112921;28;20488;-78
2022/01/01 06:02:11;;;;;;;3.80;3.25;;;0.70;99.90;;;;;;5094005;28;20122;-76
2022/01/01 06:04:37;;;;;;;1.88;1.40;;;0.70;99.90;;;;;;5112916;28;20065;-83
2022/01/01 06:07:03;;;;;;;2.58;1.20;;;0.50;99.90;;;;;;5112649;28;20450;-80
2022/01/01 06:09:30;;;;;;;2.80;1.52;;;0.70;99.90;;;;;;5094313;28;20054;-80
2022/01/01 06:11:55;;;;;;;4.13;1.13;;;0.10;99.90;;;;;;5112843;28;20049;-76
2022/01/01 06:14:21;;;;;;;1.20;1.00;;;0.80;99.90;;;;;;5094769;28;20032;-77
2022/01/01 06:16:48;;;;;;;2.35;1.73;;;0.10;99.90;;;;;;5112763;28;20380;-81
2022/01/01 06:19:14;;;;;;;7.32;2.30;;;0.00;99.90;;;;;;5094375;28;20024;-77
2022/01/01 06:21:40;;;;;;;2.75;1.60;;;0.20;99.90;;;;;;5094140;28;20028;-79
2022/01/01 06:24:06;;;;;;;3.45;1.70;;;0.40;99.90;;;;;;5093716;28;20081;-77
2022/01/01 06:26:32;;;;;;;2.28;1.55;;;0.30;99.90;;;;;;5094448;28;20502;-77
2022/01/01 06:28:58;;;;;;;6.40;2.15;;;0.70;99.90;;;;;;5094332;28;20055;-80
2022/01/01 06:31:23;;;;;;;2.75;2.22;;;0.10;99.90;;;;;;5094066;28;20062;-80
2022/01/01 06:33:49;;;;;;;1.85;1.20;;;0.00;99.90;;;;;;5094533;28;20080;-76
2022/01/01 06:36:17;;;;;;;1.63;1.20;;;1.20;99.90;;;;;;5094096;28;20536;-79
2022/01/01 06:38:44;;;;;;;2.58;1.90;;;0.30;99.90;;;;;;5112108;28;20044;-78
2022/01/01 06:41:11;;;;;;;4.13;1.55;;;0.60;99.90;;;;;;5112310;28;20027;-77
2022/01/01 06:43:38;;;;;;;1.75;1.60;;;-0.10;99.90;;;;;;5094031;28;20034;-76
2022/01/01 06:46:05;;;;;;;1.77;1.65;;;-0.20;99.90;;;;;;5093965;28;20492;-76
2022/01/01 06:48:31;;;;;;;2.28;1.42;;;-0.20;99.90;;;;;;5094096;28;20051;-82
2022/01/01 06:50:56;;;;;;;2.70;1.30;;;-0.20;99.90;;;;;;5093766;28;20472;-80
2022/01/01 06:53:22;;;;;;;2.00;1.50;;;-0.30;99.90;;;;;;5093618;28;20024;-78
2022/01/01 06:55:48;;;;;;;3.00;1.58;;;-0.30;99.90;;;;;;5111876;28;20027;-82
2022/01/01 06:58:14;;;;;;;4.03;1.73;;;-0.10;99.90;;;;;;5111772;28;20032;-80
2022/01/01 07:00:40;;;;;;;3.85;1.77;;;0.60;99.90;;;;;;5111983;28;20493;-79
2022/01/01 07:03:06;;;;;;;3.20;1.73;;;-0.10;99.90;;;;;;5093476;28;20035;-77
2022/01/01 07:05:32;;;;;;;3.13;1.90;;;0.70;99.90;;;;;;5093635;28;20027;-81
2022/01/01 07:07:58;;;;;;;2.83;1.75;;;-0.30;99.90;;;;;;5093455;28;20023;-80
2022/01/01 07:10:24;;;;;;;5.68;1.90;;;-0.40;99.90;;;;;;5093439;28;20106;-79
2022/01/01 07:12:49;;;;;;;3.00;1.73;;;-0.30;99.90;;;;;;5110921;28;20494;-79
2022/01/01 07:15:15;;;;;;;4.55;1.80;;;0.10;99.90;;;;;;5112212;28;20031;-78
2022/01/01 07:17:41;;;;;;;2.60;1.40;;;0.00;99.90;;;;;;5099699;28;20055;-76
2022/01/01 07:20:08;;;;;;;2.88;1.25;;;0.20;99.90;;;;;;5081407;28;20119;-81
2022/01/01 07:22:42;;;;;;;4.78;1.77;;;0.30;99.90;;;;;;5094017;28;20035;-79
2022/01/01 07:25:09;;;;;;;2.28;1.92;;;0.40;99.90;;;;;;5111708;28;20196;-82
2022/01/01 07:27:35;;;;;;;5.10;2.50;;;0.50;99.90;;;;;;5093207;28;20055;-78
2022/01/01 07:30:01;;;;;;;4.05;2.22;;;0.60;99.90;;;;;;5093338;28;20027;-82
2022/01/01 07:32:27;;;;;;;3.80;2.03;;;0.50;99.90;;;;;;5111231;28;20027;-81
2022/01/01 07:34:53;;;;;;;4.35;1.38;;;0.30;99.90;;;;;;5111880;28;20372;-80
2022/01/01 07:37:18;;;;;;;7.38;2.00;;;1.30;99.90;;;;;;5092982;28;20091;-84
2022/01/01 07:39:44;;;;;;;7.80;2.72;;;0.30;99.90;;;;;;5092770;28;20039;-82
2022/01/01 07:42:12;;;;;;;4.00;2.33;;;0.40;99.90;;;;;;5111177;28;20031;-87
2022/01/01 07:44:39;;;;;;;6.90;2.58;;;0.40;99.90;;;;;;5093034;28;20110;-82
2022/01/01 07:47:05;;;;;;;5.82;2.50;;;0.50;99.90;;;;;;5092972;28;20023;-82
2022/01/01 07:49:31;;;;;;;8.35;2.83;;;0.60;99.90;;;;;;5092696;28;20031;-76
2022/01/01 07:51:56;;;;;;;5.03;2.42;;;0.60;99.90;;;;;;5092777;28;20038;-76
2022/01/01 07:54:22;;;;;;;6.97;2.25;;;0.50;99.90;;;;;;5092689;28;20027;-80
2022/01/01 07:56:48;;;;;;;4.53;2.08;;;0.50;99.90;;;;;;5111640;28;20020;-83
2022/01/01 07:59:13;;;;;;;5.05;2.60;;;0.40;99.90;;;;;;5111571;28;20379;-76
2022/01/01 08:01:40;;;;;;;8.05;2.92;;;0.70;99.90;;;;;;5110778;28;20027;-76
2022/01/01 08:04:06;;;;;;;8.07;3.75;;;1.10;99.90;;;;;;5105277;28;20024;-83
2022/01/01 08:06:32;;;;;;;8.30;3.53;;;0.40;99.90;;;;;;5091882;28;20411;-76
2022/01/01 08:08:58;;;;;;;6.93;2.95;;;0.50;99.90;;;;;;5109914;28;20031;-82
2022/01/01 08:11:24;;;;;;;6.07;3.15;;;0.60;99.90;;;;;;5110245;28;20043;-80
2022/01/01 08:13:53;;;;;;;5.35;3.45;;;0.60;99.90;;;;;;5110792;28;20033;-76
2022/01/01 08:16:19;;;;;;;4.13;2.80;;;0.70;99.90;;;;;;5110792;28;20023;-77
2022/01/01 08:18:45;;;;;;;5.28;2.45;;;0.70;99.90;;;;;;5092162;28;20111;-76
2022/01/01 08:21:11;;;;;;;2.85;1.80;;;0.80;99.90;;;;;;5091872;28;20024;-78
2022/01/01 08:23:36;;;;;;;4.20;2.05;;;0.90;99.90;;;;;;5091479;28;20031;-81
2022/01/01 08:26:02;;;;;;;4.43;2.88;;;1.00;99.90;;;;;;5091954;28;20057;-77
2022/01/01 08:28:28;;;;;;;4.47;2.22;;;1.00;99.90;;;;;;5091794;28;20506;-76
2022/01/01 08:30:54;;;;;;;8.10;2.10;;;1.00;99.90;;;;;;5110257;28;20059;-79
2022/01/01 08:33:20;;;;;;;9.18;3.85;;;1.10;99.90;;;;;;5110508;28;20024;-77
2022/01/01 08:35:46;;;;;;;6.90;3.25;;;1.20;99.90;;;;;;5091608;28;20026;-83
2022/01/01 08:38:13;;;;;;;6.97;2.58;;;1.40;99.90;;;;;;5090824;28;20051;-77
2022/01/01 08:40:39;;;;;;;8.80;3.97;;;1.50;99.90;;;;;;5092431;28;20078;-80
2022/01/01 08:43:06;;;;;;;11.18;6.25;;;1.60;99.90;;;;;;5092933;28;20088;-81
2022/01/01 08:45:32;;;;;;;14.32;6.88;;;1.70;99.90;;;;;;5111288;28;20073;-77
2022/01/01 08:47:58;;;;;;;14.23;6.15;;;1.90;99.90;;;;;;5093217;28;20046;-83
2022/01/01 08:50:26;;;;;;;13.10;4.88;;;2.00;99.90;;;;;;5112170;28;20095;-80
2022/01/01 08:52:52;;;;;;;15.63;5.32;;;2.00;99.90;;;;;;5112386;28;20106;-77
2022/01/01 08:55:17;;;;;;;14.15;6.25;;;2.10;99.90;;;;;;5094472;28;20074;-86
2022/01/01 08:57:43;;;;;;;19.65;8.50;;;2.10;99.90;;;;;;5093432;28;20463;-77
2022/01/01 09:00:11;;;;;;;17.27;6.63;;;2.20;99.90;;;;;;5092879;28;20088;-78
2022/01/01 09:02:37;;;;;;;19.65;9.15;;;2.30;99.90;;;;;;5110997;28;20084;-77
2022/01/01 09:05:03;;;;;;;21.95;7.88;;;2.40;99.90;;;;;;5111032;28;20031;-77
2022/01/01 09:07:29;;;;;;;18.63;8.07;;;2.60;99.90;;;;;;5111006;28;20024;-78
2022/01/01 09:10:00;;;;;;;24.83;10.13;;;2.70;99.90;;;;;;5093220;28;20020;-83
2022/01/01 09:12:26;;;;;;;28.00;12.18;;;2.70;99.90;;;;;;5071217;28;20028;-81
2022/01/01 09:14:52;;;;;;;36.92;16.77;;;2.90;99.90;;;;;;5072419;28;20127;-80
2022/01/01 09:17:18;;;;;;;33.03;14.25;;;3.10;99.90;;;;;;5089778;28;20043;-79
2022/01/01 09:19:44;;;;;;;35.80;16.23;;;3.20;99.90;;;;;;5090049;28;20028;-82
2022/01/01 09:22:10;;;;;;;43.00;19.60;;;3.20;99.90;;;;;;5088679;28;20138;-77
2022/01/01 09:24:35;;;;;;;53.35;24.23;;;3.20;99.90;;;;;;5088521;28;20028;-77
2022/01/01 09:27:02;;;;;;;31.08;15.57;;;3.20;99.90;;;;;;5089513;28;20053;-75
2022/01/01 09:29:28;;;;;;;32.40;13.30;;;3.30;99.90;;;;;;5071533;28;20028;-77
2022/01/01 09:31:54;;;;;;;31.30;13.25;;;3.50;99.90;;;;;;5087981;28;20383;-77
2022/01/01 09:34:20;;;;;;;25.33;11.55;;;3.50;99.90;;;;;;5088198;28;20158;-79
2022/01/01 09:36:47;;;;;;;39.42;15.48;;;3.60;99.90;;;;;;5090805;28;20157;-82
2022/01/01 09:39:13;;;;;;;25.92;10.80;;;3.70;99.90;;;;;;5091748;28;20052;-84
2022/01/01 09:41:42;;;;;;;24.10;10.23;;;3.80;99.90;;;;;;5092310;28;20028;-77
2022/01/01 09:44:17;;;;;;;24.93;11.10;;;3.90;99.90;;;;;;5091543;28;20036;-82
2022/01/01 09:46:45;;;;;;;24.83;10.85;;;4.00;99.90;;;;;;5074440;28;20016;-76
2022/01/01 09:49:13;;;;;;;25.15;10.43;;;4.00;99.90;;;;;;5074540;28;20024;-76
2022/01/01 09:51:41;;;;;;;25.67;8.80;;;4.10;99.90;;;;;;5091265;28;20426;-76
2022/01/01 09:54:07;;;;;;;26.88;11.55;;;4.20;99.90;;;;;;5074298;28;20110;-76
2022/01/01 09:56:33;;;;;;;25.45;10.75;;;4.20;99.90;;;;;;5074435;28;20388;-77
2022/01/01 09:58:59;;;;;;;43.88;20.13;;;4.40;99.90;;;;;;5091239;28;20097;-76
2022/01/01 10:01:25;;;;;;;30.02;14.07;;;4.50;99.90;;;;;;5092279;28;20578;-77
2022/01/01 10:03:52;;;;;;;45.63;19.88;;;4.60;99.90;;;;;;5091316;28;20506;-77
2022/01/01 10:06:20;;;;;;;30.38;15.77;;;4.70;99.90;;;;;;5076339;28;20024;-79
2022/01/01 10:09:06;;;;;;;35.92;15.23;;;4.80;99.90;;;;;;5073926;28;20035;-76
2022/01/01 10:11:33;;;;;;;33.88;15.07;;;4.90;99.90;;;;;;5092549;28;20020;-77
2022/01/01 10:14:03;;;;;;;51.47;22.85;;;5.00;99.90;;;;;;5090622;28;20031;-76
2022/01/01 10:16:29;;;;;;;36.42;16.80;;;5.10;99.90;;;;;;5072062;28;20020;-77
2022/01/01 10:18:54;;;;;;;23.80;11.77;;;5.20;99.90;;;;;;5088900;28;20031;-76
2022/01/01 10:21:27;;;;;;;18.40;8.68;;;5.30;99.90;;;;;;5072095;28;20125;-81
2022/01/01 10:23:56;;;;;;;15.50;6.47;;;5.50;99.90;;;;;;5071744;28;20032;-77
2022/01/01 10:29:12;;;;;;;16.90;7.38;;;5.60;99.90;;;;;;5090453;28;20577;-77
2022/01/01 10:31:51;;;;;;;15.93;6.85;;;5.70;99.90;;;;;;5072361;28;20023;-76
2022/01/01 10:34:18;;;;;;;19.07;6.70;;;5.90;99.90;;;;;;5072534;28;20028;-76
2022/01/01 10:36:47;;;;;;;18.08;7.32;;;6.10;99.90;;;;;;5091268;28;20028;-76
2022/01/01 10:39:15;;;;;;;12.70;6.10;;;6.30;99.90;;;;;;5072616;28;20036;-76
2022/01/01 10:42:03;;;;;;;11.43;7.22;;;6.40;99.90;;;;;;5073371;28;20028;-81
2022/01/01 10:44:37;;;;;;;12.65;5.43;;;6.60;99.90;;;;;;5073416;28;20496;-78
2022/01/01 10:47:20;;;;;;;11.75;5.72;;;6.70;99.90;;;;;;5091494;28;20024;-76
2022/01/01 10:52:17;;;;;;;11.20;6.18;;;6.90;99.90;;;;;;5091681;28;20607;-76
2022/01/01 10:54:53;;;;;;;14.18;6.65;;;7.10;99.90;;;;;;5073783;28;20123;-79
2022/01/01 10:57:26;;;;;;;11.98;6.00;;;7.20;99.90;;;;;;5091361;28;20084;-76
2022/01/01 11:00:05;;;;;;;14.48;5.57;;;7.30;99.90;;;;;;5072850;28;20034;-76
2022/01/01 11:02:35;;;;;;;;;;;7.20;99.90;;;;;;5073613;28;20020;-76
2022/01/01 11:05:03;;;;;;;;;;;7.40;99.90;;;;;;5090434;28;19958;-76
2022/01/01 11:07:29;;;;;;;10.50;5.07;;;7.50;99.90;;;;;;5090912;28;19918;-76
2022/01/01 11:09:56;;;;;;;13.23;6.00;;;7.60;99.90;;;;;;5072563;28;20024;-76
2022/01/01 11:12:28;;;;;;;11.43;6.68;;;7.60;99.90;;;;;;5072750;28;20024;-76
2022/01/01 11:14:55;;;;;;;11.82;5.70;;;7.50;99.90;;;;;;5091082;28;20030;-76
2022/01/01 11:17:22;;;;;;;9.02;5.05;;;7.50;99.90;;;;;;5090563;28;20024;-77
2022/01/01 11:19:48;;;;;;;10.13;6.55;;;7.70;99.90;;;;;;5090614;28;20020;-77
2022/01/01 11:22:15;;;;;;;7.63;4.78;;;7.90;99.90;;;;;;5089176;28;20035;-76
2022/01/01 11:24:42;;;;;;;13.93;6.82;;;8.10;99.90;;;;;;5072599;28;20024;-76
2022/01/01 11:27:08;;;;;;;9.98;5.10;;;8.20;99.90;;;;;;5072378;28;20453;-78
2022/01/01 11:29:35;;;;;;;9.13;4.93;;;8.30;99.90;;;;;;5072407;28;20020;-77
2022/01/01 11:32:06;;;;;;;11.95;5.03;;;8.40;99.90;;;;;;5089203;28;20057;-77
2022/01/01 11:34:36;;;;;;;7.40;4.57;;;8.50;99.90;;;;;;5071780;28;20028;-77
2022/01/01 11:37:02;;;;;;;8.93;5.00;;;8.60;99.90;;;;;;5072026;28;20020;-76
2022/01/01 11:39:28;;;;;;;6.28;4.15;;;8.60;99.90;;;;;;5090550;28;20054;-76
2022/01/01 11:42:09;;;;;;;7.32;4.10;;;8.60;99.90;;;;;;5090451;28;20020;-76
2022/01/01 11:44:37;;;;;;;7.00;4.60;;;8.60;99.90;;;;;;5072112;28;20124;-77
2022/01/01 11:47:06;;;;;;;7.78;4.50;;;8.70;99.90;;;;;;5089099;28;20067;-77
2022/01/01 11:49:33;;;;;;;7.72;4.50;;;8.70;99.90;;;;;;5088786;28;20028;-75
2022/01/01 11:52:00;;;;;;;6.93;4.25;;;8.70;99.90;;;;;;5071652;28;20024;-78
2022/01/01 11:54:34;;;;;;;8.80;5.00;;;8.80;99.90;;;;;;5072198;28;20055;-77
2022/01/01 11:57:01;;;;;;;6.10;3.63;;;8.80;99.90;;;;;;5089962;28;20496;-76
2022/01/01 11:59:27;;;;;;;6.32;4.00;;;8.90;99.90;;;;;;5071502;28;20427;-76
2022/01/01 12:01:54;;;;;;;9.38;5.43;;;8.80;99.90;;;;;;5071885;28;20024;-77
2022/01/01 12:04:25;;;;;;;9.73;5.10;;;9.00;99.90;;;;;;5071773;28;20394;-76
2022/01/01 12:06:58;;;;;;;7.05;4.53;;;9.30;99.90;;;;;;5089776;28;20052;-77
2022/01/01 12:09:24;;;;;;;8.60;4.38;;;9.40;99.90;;;;;;5067400;28;20035;-77
2022/01/01 12:11:55;;;;;;;7.05;4.38;;;9.40;99.90;;;;;;5088313;28;20012;-77
2022/01/01 12:14:26;;;;;;;7.68;5.18;;;9.40;99.90;;;;;;5071450;28;20492;-77
2022/01/01 12:16:53;;;;;;;8.48;4.85;;;9.40;99.90;;;;;;5088489;28;20140;-77
2022/01/01 12:19:26;;;;;;;7.90;4.47;;;9.40;99.90;;;;;;5071652;28;20067;-77
2022/01/01 12:22:08;;;;;;;8.05;4.70;;;9.50;99.90;;;;;;5071084;28;20051;-76
2022/01/01 12:24:37;;;;;;;10.85;5.40;;;9.60;99.90;;;;;;5088020;28;20040;-76
2022/01/01 12:27:10;;;;;;;7.22;3.78;;;9.70;99.90;;;;;;5089651;28;20449;-77
2022/01/01 12:29:36;;;;;;;8.45;4.28;;;9.70;99.90;;;;;;5071309;28;20036;-78
2022/01/01 12:32:02;;;;;;;5.85;4.00;;;9.70;99.90;;;;;;5089494;28;20028;-76
2022/01/01 12:34:28;;;;;;;6.20;4.05;;;9.70;99.90;;;;;;5071248;28;20550;-77
2022/01/01 12:36:55;;;;;;;8.55;4.85;;;9.80;99.90;;;;;;5087965;28;20032;-78
2022/01/01 12:39:22;;;;;;;5.05;3.47;;;9.90;99.90;;;;;;5089174;28;20447;-76
2022/01/01 12:41:48;;;;;;;6.63;4.35;;;10.00;99.90;;;;;;5070929;28;20029;-76
2022/01/01 12:44:23;;;;;;;7.70;3.90;;;10.20;99.90;;;;;;5089348;28;20089;-76
2022/01/01 12:46:57;;;;;;;5.47;3.67;;;10.40;99.90;;;;;;5071259;28;20128;-76
2022/01/01 12:49:22;;;;;;;6.90;4.28;;;10.70;99.90;;;;;;5071470;28;20119;-77
2022/01/01 12:51:51;;;;;;;8.18;3.80;;;10.90;99.90;;;;;;5087869;28;20108;-77
2022/01/01 12:54:18;;;;;;;7.77;4.60;;;11.10;99.90;;;;;;5089440;28;20094;-76
2022/01/01 12:56:47;;;;;;;4.97;3.25;;;11.20;99.90;;;;;;5071573;28;20067;-77
2022/01/01 12:59:15;;;;;;;5.20;3.03;;;11.30;99.90;;;;;;5071220;28;20446;-76
2022/01/01 13:01:46;;;;;;;5.32;3.70;;;11.40;99.90;;;;;;5089239;28;20484;-77